Terminal Aerodrome Forecast
Issued by NWS

Current Version | Previous Version | Graphics & Text | Print | Product List | Glossary On
Versions: 1 2 3 4 5 6 7 8 9 10 11 12 13 14 15 16 17 18 19 20 21 22 23 24 25 26 27 28
562
FTUS41 KRNK 270520
TAFLWB
TAF
KLWB 270520Z 2706/2806 VRB03KT P6SM FEW150
     FM271500 29007KT P6SM BKN110
     FM271900 30009G17KT P6SM SCT110
     FM280000 30004KT P6SM FEW250=

USA.gov is the U.S. government's official web portal to all federal, state and local government web resources and services.